createdAt,value
2018-03-08T00:00:18.419Z,31.75
2018-03-08T00:01:56.644Z,29.00
2018-03-08T00:03:35.685Z,29.25
2018-03-08T00:05:14.120Z,28.25
2018-03-08T00:06:52.928Z,28.75
2018-03-08T00:08:31.056Z,23.75
2018-03-08T00:10:10.164Z,27.75
2018-03-08T00:11:48.936Z,24.25
2018-03-08T00:13:27.063Z,27.25
2018-03-08T00:15:05.377Z,30.25
2018-03-08T00:16:44.682Z,25.00
2018-03-08T00:18:23.758Z,26.00
2018-03-08T00:20:02.419Z,26.25
2018-03-08T00:21:40.091Z,26.50
2018-03-08T00:23:18.269Z,24.75
2018-03-08T00:24:55.996Z,23.50
2018-03-08T00:26:33.776Z,24.00
2018-03-08T00:28:11.381Z,27.75
2018-03-08T00:29:49.503Z,25.00
2018-03-08T00:31:27.690Z,25.25
2018-03-08T00:33:05.966Z,24.50
2018-03-08T00:34:44.576Z,19.50
2018-03-08T00:36:22.766Z,26.25
2018-03-08T00:38:00.990Z,26.00
2018-03-08T00:39:39.454Z,17.00
2018-03-08T00:41:18.180Z,23.00
2018-03-08T00:42:56.539Z,26.25
2018-03-08T00:44:34.370Z,22.75
2018-03-08T00:46:12.752Z,18.75
2018-03-08T00:47:50.449Z,14.50
2018-03-08T00:49:28.522Z,21.75
2018-03-08T00:51:06.184Z,22.75
2018-03-08T00:52:44.054Z,22.00
2018-03-08T00:54:21.613Z,22.75
2018-03-08T00:56:00.864Z,19.50
2018-03-08T00:57:38.941Z,18.50
2018-03-08T00:59:16.935Z,22.00
2018-03-08T01:00:55.237Z,17.50
2018-03-08T01:02:35.236Z,21.25
2018-03-08T01:04:13.816Z,17.75
2018-03-08T01:05:51.576Z,16.25
2018-03-08T01:07:29.574Z,14.50
2018-03-08T01:09:09.282Z,16.00
2018-03-08T01:10:48.024Z,16.00
2018-03-08T01:12:29.346Z,14.25
2018-03-08T01:14:13.634Z,12.00
2018-03-08T01:15:58.228Z,11.50
2018-03-08T01:17:35.791Z,15.25
2018-03-08T01:19:14.722Z,14.50
2018-03-08T01:20:52.439Z,12.75
2018-03-08T01:22:30.687Z,13.00
2018-03-08T01:24:08.648Z,14.75
2018-03-08T01:25:46.620Z,10.50
2018-03-08T01:27:24.241Z,13.00
2018-03-08T01:29:03.175Z,14.00
2018-03-08T01:30:41.481Z,11.00
2018-03-08T01:32:19.427Z,13.00
2018-03-08T01:33:57.285Z,10.25
2018-03-08T01:35:35.962Z,8.75
2018-03-08T01:37:13.734Z,8.50
2018-03-08T01:38:51.623Z,10.75
2018-03-08T01:40:29.750Z,8.50
2018-03-08T01:42:07.513Z,8.25
2018-03-08T01:43:47.189Z,8.00
2018-03-08T01:45:30.712Z,10.75
2018-03-08T01:47:15.600Z,9.75
2018-03-08T01:48:53.971Z,8.50
2018-03-08T01:50:31.679Z,9.00
2018-03-08T01:53:40.634Z,6.00
2018-03-08T01:55:18.905Z,6.25
2018-03-08T01:56:56.463Z,6.00
2018-03-08T01:58:34.986Z,8.00
2018-03-08T02:00:12.719Z,7.00
2018-03-08T02:01:53.856Z,6.00
2018-03-08T02:03:32.057Z,6.00
2018-03-08T02:05:10.855Z,5.50
2018-03-08T02:06:49.285Z,4.75
2018-03-08T02:08:26.570Z,8.00
2018-03-08T02:10:04.742Z,9.00
2018-03-08T02:11:42.945Z,7.50
2018-03-08T02:13:20.671Z,5.75
2018-03-08T02:14:59.334Z,5.25
2018-03-08T02:19:43.406Z,7.00
2018-03-08T02:21:21.129Z,6.00
2018-03-08T02:22:58.722Z,5.00
2018-03-08T02:24:36.936Z,5.00
2018-03-08T02:26:14.399Z,5.50
2018-03-08T02:27:51.613Z,8.00
2018-03-08T02:29:29.015Z,6.00
2018-03-08T02:31:06.723Z,5.75
2018-03-08T02:32:45.067Z,5.25
2018-03-08T02:34:23.179Z,7.50
2018-03-08T02:36:01.418Z,5.75
2018-03-08T02:37:39.238Z,5.00
2018-03-08T02:39:17.331Z,6.00
2018-03-08T02:40:56.307Z,5.75
2018-03-08T02:42:33.895Z,2.75
2018-03-08T02:44:11.032Z,4.00
2018-03-08T02:45:49.121Z,5.00
2018-03-08T02:47:26.097Z,4.00
2018-03-08T02:49:03.207Z,5.00
2018-03-08T02:50:47.497Z,4.75
2018-03-08T02:52:26.511Z,3.00
2018-03-08T02:54:04.346Z,2.00
2018-03-08T02:55:41.219Z,4.00
2018-03-08T02:57:18.247Z,3.50
2018-03-08T02:58:55.568Z,4.00
2018-03-08T03:00:32.500Z,3.50
2018-03-08T03:02:10.022Z,3.50
2018-03-08T03:03:47.132Z,2.50
2018-03-08T03:05:24.261Z,2.00
2018-03-08T03:07:01.341Z,4.25
2018-03-08T03:08:39.316Z,2.00
2018-03-08T03:10:17.079Z,4.00
2018-03-08T03:11:54.945Z,2.50
2018-03-08T03:13:32.243Z,4.00
2018-03-08T03:15:10.440Z,4.00
2018-03-08T03:16:48.666Z,2.00
2018-03-08T03:18:26.253Z,4.00
2018-03-08T03:20:04.529Z,2.50
2018-03-08T03:21:41.535Z,4.75
2018-03-08T03:25:01.096Z,3.00
2018-03-08T03:26:38.985Z,5.00
2018-03-08T03:28:16.002Z,4.75
2018-03-08T03:29:52.947Z,4.00
2018-03-08T03:31:30.182Z,2.50
2018-03-08T03:33:08.015Z,4.00
2018-03-08T03:34:44.760Z,5.00
2018-03-08T03:36:21.654Z,3.50
2018-03-08T03:37:59.781Z,3.50
2018-03-08T03:39:51.288Z,5.25
2018-03-08T03:41:28.885Z,4.25
2018-03-08T03:43:05.847Z,5.00
2018-03-08T03:44:42.999Z,2.50
2018-03-08T03:46:20.528Z,5.00
2018-03-08T03:47:57.215Z,4.00
2018-03-08T03:49:34.488Z,3.00
2018-03-08T03:51:12.489Z,4.75
2018-03-08T03:52:50.088Z,3.75
2018-03-08T03:54:26.836Z,3.75
2018-03-08T03:56:03.957Z,3.75
2018-03-08T03:57:40.940Z,2.75
2018-03-08T03:59:17.816Z,4.25
2018-03-08T04:00:55.050Z,5.00
2018-03-08T04:02:31.788Z,4.00
2018-03-08T04:04:09.130Z,2.00
2018-03-08T04:05:47.113Z,5.00
2018-03-08T04:07:24.061Z,2.50
2018-03-08T04:09:01.090Z,3.25
2018-03-08T04:10:38.453Z,4.25
2018-03-08T04:12:15.127Z,3.75
2018-03-08T04:13:51.855Z,3.50
2018-03-08T04:15:30.102Z,3.00
2018-03-08T04:17:08.080Z,2.00
2018-03-08T04:18:44.676Z,3.00
2018-03-08T04:20:21.933Z,3.00
2018-03-08T04:21:58.841Z,4.50
2018-03-08T04:23:36.492Z,4.50
2018-03-08T04:25:14.149Z,5.00
2018-03-08T04:26:50.653Z,3.00
2018-03-08T04:28:27.442Z,3.00
2018-03-08T04:30:04.910Z,2.50
2018-03-08T04:31:41.813Z,4.50
2018-03-08T04:33:19.184Z,2.75
2018-03-08T04:34:55.638Z,3.00
2018-03-08T04:36:33.165Z,5.00
2018-03-08T04:38:10.470Z,3.50
2018-03-08T04:39:47.731Z,5.00
2018-03-08T04:41:25.190Z,6.00
2018-03-08T04:43:02.465Z,6.75
2018-03-08T04:44:39.416Z,5.75
2018-03-08T04:46:17.185Z,7.50
2018-03-08T04:47:54.837Z,9.25
2018-03-08T04:49:32.187Z,10.50
2018-03-08T04:51:09.016Z,8.50
2018-03-08T04:52:45.846Z,6.00
2018-03-08T04:54:23.648Z,5.00
2018-03-08T04:56:01.037Z,7.00
2018-03-08T04:57:38.031Z,6.00
2018-03-08T04:59:14.662Z,6.25
2018-03-08T05:00:51.723Z,5.00
2018-03-08T05:02:28.931Z,4.50
2018-03-08T05:04:06.929Z,7.75
2018-03-08T05:05:43.716Z,6.50
2018-03-08T05:07:20.186Z,6.75
2018-03-08T05:08:59.260Z,5.25
2018-03-08T05:10:36.046Z,5.25
2018-03-08T05:12:12.797Z,6.00
2018-03-08T05:13:51.057Z,6.00
2018-03-08T05:15:30.090Z,6.00
2018-03-08T05:17:07.495Z,6.00
2018-03-08T05:18:44.772Z,6.00
2018-03-08T05:20:21.547Z,5.75
2018-03-08T05:21:59.466Z,5.25
2018-03-08T05:23:36.974Z,5.75
2018-03-08T05:25:14.845Z,8.50
2018-03-08T05:26:51.918Z,5.25
2018-03-08T05:28:29.494Z,7.75
2018-03-08T05:30:07.088Z,5.75
2018-03-08T05:31:45.236Z,8.00
2018-03-08T05:33:22.801Z,6.00
2018-03-08T05:36:41.109Z,5.25
2018-03-08T05:38:18.516Z,7.50
2018-03-08T05:39:55.929Z,6.00
2018-03-08T05:41:33.505Z,5.50
2018-03-08T05:43:13.737Z,5.25
2018-03-08T05:44:51.262Z,5.50
2018-03-08T05:46:29.422Z,4.50
2018-03-08T05:48:07.479Z,8.00
2018-03-08T05:49:44.970Z,6.00
2018-03-08T05:51:22.789Z,7.00
2018-03-08T05:53:00.684Z,6.00
2018-03-08T05:54:38.744Z,6.00
2018-03-08T05:56:17.353Z,6.75
2018-03-08T05:57:55.733Z,6.75
2018-03-08T05:59:33.613Z,5.00
2018-03-08T06:01:12.510Z,5.00
2018-03-08T06:02:50.230Z,6.75
2018-03-08T06:04:27.630Z,6.50
2018-03-08T06:06:05.857Z,4.50
2018-03-08T06:07:44.788Z,4.00
2018-03-08T06:09:23.559Z,6.75
2018-03-08T06:11:03.095Z,6.00
2018-03-08T06:12:41.074Z,5.00
2018-03-08T06:14:19.360Z,5.00
2018-03-08T06:15:57.469Z,5.00
2018-03-08T06:17:35.382Z,5.00
2018-03-08T06:19:13.107Z,6.75
2018-03-08T06:20:51.078Z,7.25
2018-03-08T06:22:30.065Z,7.25
2018-03-08T06:24:08.681Z,6.25
2018-03-08T06:25:47.099Z,6.75
2018-03-08T06:27:25.884Z,7.25
2018-03-08T06:29:04.124Z,7.00
2018-03-08T06:30:42.723Z,9.00
2018-03-08T06:32:21.047Z,8.25
2018-03-08T06:33:59.127Z,9.75
2018-03-08T06:35:36.824Z,8.50
2018-03-08T06:37:14.460Z,9.75
2018-03-08T06:38:52.211Z,7.50
2018-03-08T06:40:30.478Z,7.75
2018-03-08T06:42:07.978Z,7.50
2018-03-08T06:43:45.447Z,8.00
2018-03-08T06:45:24.784Z,7.75
2018-03-08T06:47:02.814Z,8.75
2018-03-08T06:48:40.181Z,10.50
2018-03-08T06:50:18.945Z,12.50
2018-03-08T06:51:56.819Z,10.50
2018-03-08T06:53:35.049Z,8.25
2018-03-08T06:55:13.892Z,10.75
2018-03-08T06:56:51.530Z,9.50
2018-03-08T06:58:29.913Z,9.00
2018-03-08T07:00:10.775Z,8.75
2018-03-08T07:01:48.671Z,10.50
2018-03-08T07:03:26.615Z,12.50
2018-03-08T07:05:05.396Z,10.50
2018-03-08T07:06:43.348Z,11.00
2018-03-08T07:08:20.891Z,11.50
2018-03-08T07:09:58.676Z,10.50
2018-03-08T07:11:36.485Z,12.50
2018-03-08T07:13:15.001Z,10.50
2018-03-08T07:14:52.525Z,12.00
2018-03-08T07:16:30.983Z,10.50
2018-03-08T07:18:08.773Z,12.50
2018-03-08T07:19:46.906Z,12.00
2018-03-08T07:21:24.871Z,13.00
2018-03-08T07:23:02.697Z,11.75
2018-03-08T07:24:40.158Z,12.75
2018-03-08T07:26:17.856Z,10.25
2018-03-08T07:27:55.600Z,11.75
2018-03-08T07:29:33.159Z,13.50
2018-03-08T07:31:11.137Z,14.50
2018-03-08T07:32:49.161Z,13.50
2018-03-08T07:34:27.088Z,12.00
2018-03-08T07:36:04.713Z,13.00
2018-03-08T07:37:42.828Z,15.25
2018-03-08T07:39:20.781Z,15.75
2018-03-08T07:40:58.121Z,13.00
2018-03-08T07:42:35.654Z,11.25
2018-03-08T07:44:13.225Z,13.75
2018-03-08T07:45:51.444Z,13.75
2018-03-08T07:47:28.997Z,15.25
2018-03-08T07:49:06.763Z,17.00
2018-03-08T07:50:44.235Z,15.00
2018-03-08T07:52:21.851Z,15.50
2018-03-08T07:53:59.450Z,16.00
2018-03-08T07:55:37.076Z,18.50
2018-03-08T07:57:15.477Z,13.00
2018-03-08T07:58:53.244Z,18.75
2018-03-08T08:00:31.194Z,12.75
2018-03-08T08:02:09.681Z,18.25
2018-03-08T08:03:47.194Z,16.00
2018-03-08T08:06:43.314Z,17.00
2018-03-08T08:09:25.061Z,14.00
2018-03-08T08:11:04.166Z,15.00
2018-03-08T08:12:41.565Z,18.00
2018-03-08T08:14:18.972Z,10.00
2018-03-08T08:15:56.947Z,16.00
2018-03-08T08:17:35.629Z,15.75
2018-03-08T08:19:13.766Z,12.00
2018-03-08T08:20:51.229Z,14.75
2018-03-08T08:22:28.904Z,16.75
2018-03-08T08:24:07.985Z,16.75
2018-03-08T08:25:45.247Z,13.75
2018-03-08T08:27:22.657Z,16.75
2018-03-08T08:29:00.116Z,15.00
2018-03-08T08:30:38.245Z,13.25
2018-03-08T08:32:15.467Z,11.50
2018-03-08T08:33:52.692Z,14.25
2018-03-08T08:35:29.815Z,12.75
2018-03-08T08:37:07.139Z,14.25
2018-03-08T08:38:44.541Z,14.25
2018-03-08T08:40:21.639Z,15.50
2018-03-08T08:41:58.943Z,14.00
2018-03-08T08:43:36.702Z,15.75
2018-03-08T08:45:17.105Z,14.50
2018-03-08T08:46:54.577Z,13.75
2018-03-08T08:48:31.955Z,18.50
2018-03-08T08:50:10.663Z,12.50
2018-03-08T08:51:48.695Z,16.00
2018-03-08T08:53:26.340Z,13.75
2018-03-08T08:55:05.121Z,14.25
2018-03-08T08:56:42.747Z,12.75
2018-03-08T08:58:21.084Z,14.00
2018-03-08T08:59:58.493Z,14.00
2018-03-08T09:01:37.133Z,13.50
2018-03-08T09:03:15.724Z,15.00
2018-03-08T09:04:53.197Z,14.25
2018-03-08T09:06:31.121Z,7.00
2018-03-08T09:08:09.268Z,16.75
2018-03-08T09:09:47.124Z,16.50
2018-03-08T09:11:24.614Z,13.25
2018-03-08T09:13:01.770Z,15.75
2018-03-08T09:14:39.348Z,17.00
2018-03-08T09:16:17.219Z,14.00
2018-03-08T09:17:54.650Z,12.75
2018-03-08T09:19:32.688Z,12.25
2018-03-08T09:21:09.892Z,12.50
2018-03-08T09:22:47.358Z,14.25
2018-03-08T09:24:24.774Z,14.25
2018-03-08T09:26:02.798Z,11.25
2018-03-08T09:27:41.902Z,13.00
2018-03-08T09:29:20.714Z,13.25
2018-03-08T09:30:57.899Z,14.50
2018-03-08T09:32:35.935Z,14.75
2018-03-08T09:34:14.090Z,10.25
2018-03-08T09:35:52.411Z,14.00
2018-03-08T09:37:29.406Z,11.00
2018-03-08T09:39:06.997Z,14.00
2018-03-08T09:40:44.122Z,13.00
2018-03-08T09:42:21.249Z,32.25
2018-03-08T09:43:58.781Z,13.50
2018-03-08T09:45:36.306Z,11.00
2018-03-08T09:47:13.436Z,10.75
2018-03-08T09:48:50.976Z,13.25
2018-03-08T09:50:28.195Z,15.25
2018-03-08T09:52:05.224Z,13.50
2018-03-08T09:53:42.303Z,10.75
2018-03-08T09:55:19.851Z,11.00
2018-03-08T09:56:56.876Z,15.00
2018-03-08T09:58:34.167Z,10.75
2018-03-08T10:00:11.226Z,11.00
2018-03-08T10:03:29.971Z,11.50
2018-03-08T10:05:09.496Z,9.00
2018-03-08T10:06:46.716Z,10.25
2018-03-08T10:08:25.164Z,9.25
2018-03-08T10:10:02.489Z,9.75
2018-03-08T10:11:39.698Z,9.00
2018-03-08T10:13:16.728Z,9.00
2018-03-08T10:14:54.682Z,9.00
2018-03-08T10:16:31.893Z,11.75
2018-03-08T10:18:09.982Z,11.00
2018-03-08T10:19:47.143Z,10.00
2018-03-08T10:21:44.339Z,11.00
2018-03-08T10:23:01.935Z,9.00
2018-03-08T10:24:39.498Z,10.00
2018-03-08T10:26:16.887Z,9.50
2018-03-08T10:27:54.216Z,10.50
2018-03-08T10:29:31.539Z,10.50
2018-03-08T10:31:09.738Z,11.00
2018-03-08T10:32:47.832Z,10.75
2018-03-08T10:34:27.247Z,6.75
2018-03-08T10:36:04.802Z,8.50
2018-03-08T10:37:42.852Z,9.25
2018-03-08T10:40:57.987Z,9.50
2018-03-08T10:44:13.599Z,9.00
2018-03-08T10:45:51.594Z,7.50
2018-03-08T10:47:28.910Z,9.00
2018-03-08T10:49:06.153Z,9.50
2018-03-08T10:50:43.566Z,9.25
2018-03-08T10:52:20.994Z,7.50
2018-03-08T10:54:00.732Z,7.75
2018-03-08T10:55:38.799Z,7.50
2018-03-08T10:57:15.972Z,5.75
2018-03-08T10:58:53.102Z,6.25
2018-03-08T11:00:35.316Z,6.50
2018-03-08T11:02:16.990Z,6.00
2018-03-08T11:03:55.948Z,6.25
2018-03-08T11:05:37.021Z,6.00
2018-03-08T11:07:14.839Z,6.50
2018-03-08T11:08:51.810Z,6.25
2018-03-08T11:10:29.420Z,5.75
2018-03-08T11:12:06.807Z,5.50
2018-03-08T11:13:44.539Z,5.75
2018-03-08T11:15:22.022Z,3.50
2018-03-08T11:18:41.210Z,5.00
2018-03-08T11:20:18.590Z,3.00
2018-03-08T11:21:56.283Z,5.00
2018-03-08T11:23:33.570Z,3.00
2018-03-08T11:25:10.817Z,3.00
2018-03-08T11:26:49.395Z,3.00
2018-03-08T11:28:28.276Z,3.00
2018-03-08T11:30:05.954Z,2.75
2018-03-08T11:31:44.835Z,4.00
2018-03-08T11:33:23.271Z,4.00
2018-03-08T11:35:00.523Z,4.00
2018-03-08T11:36:38.484Z,5.00
2018-03-08T11:38:16.651Z,5.00
2018-03-08T11:39:54.299Z,4.50
2018-03-08T11:41:32.502Z,3.00
2018-03-08T11:43:09.930Z,3.00
2018-03-08T11:44:47.230Z,3.00
2018-03-08T11:46:26.060Z,2.00
2018-03-08T11:48:03.347Z,5.25
2018-03-08T11:49:41.191Z,3.00
2018-03-08T11:51:18.444Z,5.00
2018-03-08T11:52:55.899Z,2.75
2018-03-08T11:54:33.121Z,2.75
2018-03-08T11:56:10.416Z,2.25
2018-03-08T11:57:47.614Z,3.00
2018-03-08T11:59:25.133Z,3.00
2018-03-08T12:01:02.762Z,2.00
2018-03-08T12:02:39.874Z,2.00
2018-03-08T12:04:16.940Z,2.00
2018-03-08T12:05:54.557Z,2.00
2018-03-08T12:07:37.148Z,1.25
2018-03-08T12:09:16.014Z,1.25
2018-03-08T12:10:52.931Z,2.00
2018-03-08T12:12:30.413Z,1.25
2018-03-08T12:14:08.210Z,1.75
2018-03-08T12:15:45.682Z,2.00
2018-03-08T12:17:22.837Z,2.00
2018-03-08T12:19:00.256Z,1.25
2018-03-08T12:20:37.534Z,2.00
2018-03-08T12:22:15.498Z,1.50
2018-03-08T12:23:52.786Z,2.00
2018-03-08T12:25:30.371Z,2.00
2018-03-08T12:27:14.926Z,4.00
2018-03-08T12:28:52.232Z,2.00
2018-03-08T12:30:30.358Z,2.25
2018-03-08T12:32:07.810Z,3.00
2018-03-08T12:33:44.653Z,2.00
2018-03-08T12:35:21.588Z,3.00
2018-03-08T12:36:58.774Z,2.25
2018-03-08T12:38:36.916Z,1.00
2018-03-08T12:40:14.793Z,2.00
2018-03-08T12:41:51.984Z,1.25
2018-03-08T12:43:29.003Z,2.00
2018-03-08T12:45:06.746Z,2.75
2018-03-08T12:46:44.390Z,2.00
2018-03-08T12:48:21.422Z,3.00
2018-03-08T12:49:59.261Z,4.00
2018-03-08T12:51:37.768Z,2.00
2018-03-08T12:53:16.291Z,3.00
2018-03-08T12:54:55.228Z,2.00
2018-03-08T12:56:34.262Z,2.00
2018-03-08T12:58:11.469Z,2.00
2018-03-08T12:59:48.730Z,2.75
2018-03-08T13:01:26.143Z,2.75
2018-03-08T13:03:03.156Z,2.75
2018-03-08T13:04:40.975Z,2.50
2018-03-08T13:06:18.694Z,2.00
2018-03-08T13:07:55.838Z,2.25
2018-03-08T13:09:34.302Z,3.00
2018-03-08T13:11:12.224Z,1.00
2018-03-08T13:12:50.661Z,3.00
2018-03-08T13:14:27.978Z,3.00
2018-03-08T13:16:06.032Z,2.25
2018-03-08T13:17:43.385Z,2.00
2018-03-08T13:19:21.162Z,2.00
2018-03-08T13:20:58.161Z,3.50
2018-03-08T13:22:36.559Z,2.00
2018-03-08T13:24:13.819Z,3.00
2018-03-08T13:25:51.791Z,3.50
2018-03-08T13:27:28.897Z,2.50
2018-03-08T13:29:07.097Z,3.00
2018-03-08T13:30:45.252Z,2.00
2018-03-08T13:32:22.653Z,4.50
2018-03-08T13:34:00.386Z,5.00
2018-03-08T13:35:38.492Z,3.00
2018-03-08T13:37:17.141Z,3.00
2018-03-08T13:38:58.642Z,5.00
2018-03-08T13:40:36.614Z,3.50
2018-03-08T13:42:17.278Z,3.00
2018-03-08T13:43:54.717Z,4.50
2018-03-08T13:45:33.025Z,4.50
2018-03-08T13:47:10.881Z,3.00
2018-03-08T13:48:48.005Z,3.00
2018-03-08T13:50:25.283Z,2.00
2018-03-08T13:52:02.999Z,3.00
2018-03-08T13:53:41.508Z,1.75
2018-03-08T13:55:19.054Z,7.00
2018-03-08T13:56:56.147Z,4.50
2018-03-08T13:58:34.348Z,2.00
2018-03-08T14:00:11.474Z,2.25
2018-03-08T14:01:49.314Z,1.75
2018-03-08T14:03:26.324Z,2.25
2018-03-08T14:05:03.654Z,2.00
2018-03-08T14:06:41.140Z,1.00
2018-03-08T14:08:18.656Z,1.75
2018-03-08T14:09:56.610Z,2.00
2018-03-08T14:11:34.634Z,2.75
2018-03-08T14:13:12.086Z,2.00
2018-03-08T14:14:50.809Z,1.00
2018-03-08T14:16:27.973Z,1.50
2018-03-08T14:18:06.310Z,26.75
2018-03-08T14:19:45.312Z,2.00
2018-03-08T14:21:23.150Z,1.50
2018-03-08T14:23:00.850Z,4.50
2018-03-08T14:24:38.074Z,4.50
2018-03-08T14:26:15.073Z,3.00
2018-03-08T14:27:52.725Z,4.50
2018-03-08T14:29:30.092Z,2.75
2018-03-08T14:31:07.377Z,3.00
2018-03-08T14:44:21.984Z,2.25
2018-03-08T14:45:59.217Z,2.75
2018-03-08T14:47:36.370Z,2.50
2018-03-08T14:49:13.716Z,4.50
2018-03-08T14:50:50.771Z,2.00
2018-03-08T14:52:28.588Z,2.00
2018-03-08T14:54:06.236Z,2.00
2018-03-08T14:55:43.811Z,5.00
2018-03-08T14:57:20.960Z,5.75
2018-03-08T14:58:57.872Z,3.00
2018-03-08T15:00:36.175Z,6.75
2018-03-08T15:02:13.722Z,3.00
2018-03-08T15:03:51.208Z,5.00
2018-03-08T15:05:28.239Z,3.00
2018-03-08T15:07:05.296Z,5.75
2018-03-08T15:08:43.077Z,5.50
2018-03-08T15:10:20.071Z,4.00
2018-03-08T15:11:57.127Z,2.00
2018-03-08T15:13:36.826Z,3.25
2018-03-08T15:15:15.990Z,2.00
2018-03-08T15:16:55.641Z,2.50
2018-03-08T15:18:32.888Z,1.00
2018-03-08T15:20:10.111Z,3.00
2018-03-08T15:21:47.689Z,2.00
2018-03-08T15:23:25.065Z,3.50
2018-03-08T15:25:03.002Z,2.50
2018-03-08T15:26:40.763Z,1.00
2018-03-08T15:28:18.437Z,1.00
2018-03-08T15:29:55.421Z,2.00
2018-03-08T15:31:33.069Z,1.00
2018-03-08T15:33:10.399Z,1.00
2018-03-08T15:34:55.975Z,0.75
2018-03-08T15:36:33.253Z,0.00
2018-03-08T15:38:22.201Z,0.00
2018-03-08T15:39:59.336Z,26.50
2018-03-08T15:41:36.975Z,0.00
2018-03-08T15:43:14.499Z,0.00
2018-03-08T15:44:51.712Z,1.00
2018-03-08T15:46:29.266Z,0.75
2018-03-08T15:48:07.950Z,0.00
2018-03-08T15:49:45.016Z,1.00
2018-03-08T15:51:22.149Z,0.00
2018-03-08T15:53:00.079Z,0.00
2018-03-08T15:54:38.620Z,0.00
2018-03-08T15:56:16.588Z,0.75
2018-03-08T15:57:53.856Z,0.50
2018-03-08T15:59:30.977Z,2.00
2018-03-08T16:01:09.618Z,0.00
2018-03-08T16:02:46.626Z,0.00
2018-03-08T16:04:23.928Z,0.00
2018-03-08T16:06:01.359Z,0.75
2018-03-08T16:07:39.562Z,1.00
2018-03-08T16:09:21.531Z,1.00
2018-03-08T16:10:59.008Z,0.00
2018-03-08T16:12:36.118Z,0.00
2018-03-08T16:14:13.139Z,0.00
2018-03-08T16:15:50.367Z,0.00
2018-03-08T19:15:29.074Z,3.00
2018-03-08T19:17:06.036Z,3.00
2018-03-08T19:18:43.118Z,4.25
2018-03-08T19:20:20.687Z,3.00
2018-03-08T19:21:57.614Z,7.50
2018-03-08T19:23:34.547Z,3.00
2018-03-08T19:25:11.703Z,2.00
2018-03-08T19:26:49.182Z,4.25
2018-03-08T19:28:27.180Z,3.00
2018-03-08T19:30:04.525Z,4.75
2018-03-08T19:31:41.958Z,4.25
2018-03-08T19:33:19.304Z,2.00
2018-03-08T19:34:58.349Z,2.00
2018-03-08T19:36:35.373Z,1.75
2018-03-08T19:38:12.406Z,6.50
2018-03-08T19:39:50.021Z,4.50
2018-03-08T19:41:27.894Z,3.50
2018-03-08T19:43:05.793Z,2.50
2018-03-08T19:44:42.737Z,4.00
2018-03-08T19:46:20.598Z,6.50
2018-03-08T19:47:59.254Z,2.25
2018-03-08T19:49:36.292Z,7.75
2018-03-08T19:51:13.549Z,4.25
2018-03-08T19:52:51.036Z,4.75
2018-03-08T19:54:28.851Z,3.75
2018-03-08T19:56:05.904Z,5.00
2018-03-08T19:57:42.867Z,2.00
2018-03-08T19:59:19.933Z,5.50
2018-03-08T20:00:58.701Z,2.00
2018-03-08T20:02:35.822Z,4.50
2018-03-08T20:04:13.272Z,3.50
2018-03-08T20:05:52.678Z,4.25
2018-03-08T20:09:07.692Z,4.50
2018-03-08T20:10:45.416Z,4.00
2018-03-08T20:12:22.614Z,2.00
2018-03-08T20:14:00.507Z,4.00
2018-03-08T20:15:37.613Z,9.50
2018-03-08T20:17:14.601Z,3.50
2018-03-08T20:18:51.874Z,3.50
2018-03-08T20:20:28.739Z,3.00
2018-03-08T20:22:05.762Z,5.50
2018-03-08T20:23:42.588Z,5.75
2018-03-08T20:25:20.646Z,11.00
2018-03-08T20:26:57.643Z,6.00
2018-03-08T20:28:35.531Z,5.75
2018-03-08T20:30:12.524Z,5.50
2018-03-08T20:31:51.458Z,3.00
2018-03-08T20:35:12.966Z,5.00
2018-03-08T20:36:50.072Z,6.00
2018-03-08T20:38:27.290Z,5.00
2018-03-08T20:40:04.680Z,6.50
2018-03-08T20:41:42.866Z,10.00
2018-03-08T20:43:20.119Z,13.00
2018-03-08T20:44:58.349Z,9.75
2018-03-08T20:46:35.985Z,7.75
2018-03-08T20:48:13.251Z,7.50
2018-03-08T20:49:50.416Z,6.75
2018-03-08T20:51:27.821Z,7.00
2018-03-08T20:53:04.849Z,4.50
2018-03-08T20:54:41.953Z,9.00
2018-03-08T20:56:19.054Z,5.00
2018-03-08T20:57:58.093Z,4.50
2018-03-08T20:59:35.036Z,7.50
2018-03-08T21:01:12.184Z,5.50
2018-03-08T21:02:49.172Z,6.50
2018-03-08T21:04:27.160Z,5.50
2018-03-08T21:06:05.035Z,6.00
2018-03-08T21:07:42.059Z,5.75
2018-03-08T21:09:19.640Z,5.50
2018-03-08T21:10:57.947Z,6.00
2018-03-08T21:12:34.985Z,8.50
2018-03-08T21:14:12.196Z,5.00
2018-03-08T21:15:49.967Z,5.00
2018-03-08T21:17:27.438Z,11.50
2018-03-08T21:19:05.392Z,7.00
2018-03-08T21:20:42.518Z,5.00
2018-03-08T21:22:20.263Z,5.00
2018-03-08T21:23:58.258Z,5.00
2018-03-08T21:25:37.324Z,6.75
2018-03-08T21:27:14.544Z,5.00
2018-03-08T21:28:52.474Z,4.00
2018-03-08T21:30:31.537Z,5.00
2018-03-08T21:32:08.593Z,5.00
2018-03-08T21:33:45.638Z,4.50
2018-03-08T21:35:22.742Z,4.50
2018-03-08T21:37:02.843Z,6.00
2018-03-08T21:38:40.386Z,5.25
2018-03-08T21:40:19.696Z,5.75
2018-03-08T21:41:57.837Z,4.25
2018-03-08T21:43:36.143Z,5.25
2018-03-08T21:45:15.002Z,5.00
2018-03-08T21:46:53.079Z,4.00
2018-03-08T21:48:31.585Z,10.25
2018-03-08T21:50:09.041Z,4.75
2018-03-08T21:51:47.671Z,4.75
2018-03-08T21:53:26.085Z,2.50
2018-03-08T21:55:05.309Z,4.75
2018-03-08T21:56:43.959Z,2.50
2018-03-08T21:58:22.452Z,4.00
2018-03-08T22:00:01.225Z,5.00
2018-03-08T22:01:42.450Z,4.00
2018-03-08T22:03:22.007Z,6.00
2018-03-08T22:05:07.927Z,4.50
2018-03-08T22:06:48.625Z,5.75
2018-03-08T22:08:27.207Z,5.00
2018-03-08T22:10:06.777Z,5.00
2018-03-08T22:11:44.233Z,6.00
2018-03-08T22:13:23.678Z,4.25
2018-03-08T22:15:03.142Z,7.50
2018-03-08T22:16:41.399Z,6.75
2018-03-08T22:18:19.498Z,7.00
2018-03-08T22:19:56.772Z,5.00
2018-03-08T22:21:33.970Z,5.00
2018-03-08T22:23:12.216Z,6.00
2018-03-08T22:24:49.270Z,5.25
2018-03-08T22:26:27.085Z,4.25
2018-03-08T22:28:04.245Z,5.00
2018-03-08T22:29:42.173Z,4.25
2018-03-08T22:31:20.550Z,6.00
2018-03-08T22:32:58.278Z,8.00
2018-03-08T22:34:35.266Z,5.00
2018-03-08T22:36:12.622Z,4.00
2018-03-08T22:37:50.520Z,5.50
2018-03-08T22:39:27.619Z,6.00
2018-03-08T22:41:04.683Z,5.00
2018-03-08T22:42:42.187Z,4.50
2018-03-08T22:44:19.223Z,4.00
2018-03-08T22:45:59.393Z,5.25
2018-03-08T22:47:40.800Z,5.00
2018-03-08T22:49:18.396Z,4.25
2018-03-08T22:50:56.794Z,4.00
2018-03-08T22:52:34.261Z,5.00
2018-03-08T22:54:14.251Z,5.00
2018-03-08T22:55:51.795Z,4.00
2018-03-08T22:57:28.931Z,4.75
2018-03-08T22:59:06.598Z,2.00
2018-03-08T23:00:44.458Z,4.75
2018-03-08T23:02:25.969Z,4.25
2018-03-08T23:04:04.702Z,6.00
2018-03-08T23:05:41.902Z,5.00
2018-03-08T23:07:19.407Z,3.00
2018-03-08T23:08:57.002Z,2.00
2018-03-08T23:17:21.534Z,4.00
2018-03-08T23:19:06.376Z,4.25
2018-03-08T23:20:58.427Z,4.25
2018-03-08T23:22:35.683Z,4.00
2018-03-08T23:24:14.564Z,4.75
2018-03-08T23:25:51.497Z,2.00
2018-03-08T23:27:28.985Z,4.00
2018-03-08T23:29:06.085Z,3.50
2018-03-08T23:30:45.150Z,4.75
2018-03-08T23:32:23.346Z,2.00
2018-03-08T23:34:00.708Z,2.50
2018-03-08T23:35:37.912Z,4.00
2018-03-08T23:37:16.265Z,4.00
2018-03-08T23:38:53.652Z,2.00
2018-03-08T23:40:30.935Z,4.00
2018-03-08T23:42:08.234Z,5.00
2018-03-08T23:43:46.744Z,3.50
2018-03-08T23:45:26.091Z,2.00
2018-03-08T23:47:04.357Z,4.00
2018-03-08T23:48:42.415Z,2.00
2018-03-08T23:50:19.994Z,4.00
2018-03-08T23:51:57.783Z,5.00
2018-03-08T23:53:36.576Z,4.00
2018-03-08T23:55:14.942Z,4.00
2018-03-08T23:56:52.596Z,2.00
2018-03-08T23:58:33.239Z,2.00
